ADDS TAF Board (Experimental) INFO Settings
IDs: Format: Expanded Condensed

KMDW - Chicago/Midway Intl, IL, US

Issued at 2329 UTC 29 May 2015
Updated at: 0021 UTC 30 May 2015
Time2353Z 30/01Z 30/02Z 30/03Z 30/04Z 30/05Z 30/06Z 30/07Z 30/08Z 30/09Z 30/10Z 30/11Z 30/12Z 30/13Z
Type OBS PRVL PRVL PRVL PRVL PRVL PRVL PRVL PRVL PRVL PRVL PRVL PRVL PRVL
VIS 10 >6 >6 >6 >6 >6 >6 >6 >6 >6 4 4 4 4
CIG 110 250 250 250 250 250 45 45 45 45 40 40 40 40
Cover BKN BKN BKN BKN BKN BKN BKN BKN BKN BKN OVC OVC OVC OVC
FltCat VFR VFR VFR VFR VFR VFR VFR VFR VFR VFR MVFR MVFR MVFR MVFR
WX -- VCSH -- -- -- -- VCSH VCSH VCSH VCSH SHRA SHRA SHRA SHRA
WDir 230 240 220 220 220 220 230 230 230 230 250 250 250 250
WSpd 10 12 9 9 9 9 8 8 8 8 8 8 8 8
WGst -- 20 -- -- -- -- -- -- -- -- -- -- -- --
R04/22
XWnd 1 4 -0 -0 -0 -0 1 1 1 1 4 4 4 4
XGst -- 6 -- -- -- -- -- -- -- -- -- -- -- --
HWnd -10 -11 -9 -9 -9 -9 -8 -8 -8 -8 -7 -7 -7 -7
HGst -- -19 -- -- -- -- -- -- -- -- -- -- -- --
R13/31
XWnd -10 -12 -9 -9 -9 -9 -8 -8 -8 -8 -7 -7 -7 -7
XGst -- -19 -- -- -- -- -- -- -- -- -- -- -- --
HWnd -1 -3 1 1 1 1 -1 -1 -1 -1 -4 -4 -4 -4
HGst -- -6 -- -- -- -- -- -- -- -- -- -- -- --

NOTE: TEMPO conditions in [brackets]. Keep in mind TEMPO conditions might be better (lower impact) than prevailing conditions.

Raw TAF
KMDW 292329Z 3000/3024 24012G20KT P6SM VCSH SCT040 SCT120 BKN250
  FM300200 22009KT P6SM SCT040 BKN250
  FM300600 23008KT P6SM VCSH BKN045
  FM301000 25008KT 4SM SHRA SCT020 OVC040
  FM301400 02015G27KT 3SM RA OVC007
  FM302300 02018G27KT P6SM VCSH SCT007 BKN020


Raw METAR
KMDW 292353Z 23010KT 10SM FEW040 SCT075 BKN110 BKN230 28/19 A2990 RMK AO2 SLP116 CB DSNT S 60001 T02780189 10289 20256 55004
KMDW 292253Z 24014G20KT 10SM SCT065CB BKN075 BKN120 BKN250 28/18 A2989 RMK AO2 SLP113 CB N MOV N T02780183
KMDW 292153Z 20012G19KT 10SM FEW047 SCT060 BKN085 BKN250 28/19 A2990 RMK AO2 SLP115 T02830194

METAR Board
Radar Display
Forecast Discussion

TAF Board Legend

Potential Impact
Threat None Slight Moderate High
Visibility (sm) ≥5.1 5.1>X≥3 3>X≥1 <1
Ceiling (100 ft) ≥30.1 30.1>X≥10 10>X≥5 <5
Wind Speed (kt) <10 10≤X<20 20≤X<30 ≥30
Wind Gust (kt) <15 15≤X<25 25≤X<35 ≥35
Weather No Wx Reported VCTS,-TS,-FZRA,SN TS,FZRA +TS,+FZRA,+SN